Weippe, ID (83553)

2:17 AM PDT on October 01, 2014 (GMT -0700)
New Hope Subdivision | Change Station
CLOSE
Current Station
Personal Weather Station
Location: Lenore, ID
Elevation: 2087 ft
Nearby Weather Stations

Elev 2087 ft 46.52 °N, 116.38 °W | Updated 2 seconds ago

Mostly Cloudy
Mostly Cloudy
43.0 °F
Feels Like 43 °F
N
0.0
Wind Variable Wind from North
Gusts 1.6 mph

Today
High -- | Low -- °F
--% Chance of Precip.
Yesterday
High -- | Low -- °F
Precip. -- in
6:42 AM 6:23 PM
Waxing Crescent, 45% visible
Pressure 30.09 in
Visibility 10.0 miles
Clouds Mostly Cloudy 4900 ft
Overcast 5500 ft
Windchill 43 °F
Dew Point 42 °F
Humidity 98%
Rainfall 0.00 in
Snow Depth Not available.
UV 0 out of 12
Pollen 6.50 out of 12
Air Quality Not available.
Flu Activity Not available.
METAR KGIC 010835Z AUTO 00000KT 10SM BKN049 OVC055 07/04 A3009 RMK AO1 T00650038

More Conditions Fewer Conditions

Pressure 30.09 in
Visibility 10.0 miles
Clouds Mostly Cloudy 4900 ft
Overcast 5500 ft
Windchill 43 °F
Dew Point 42 °F
Humidity 98%
Rainfall 0.00 in
Snow Depth Not available.
UV 0 out of 12
Pollen 6.50 out of 12
Air Quality Not available.
Flu Activity Not available.
METAR KGIC 010835Z AUTO 00000KT 10SM BKN049 OVC055 07/04 A3009 RMK AO1 T00650038

More Conditions Fewer Conditions

10-Day Weather Forecast

Almanac

Astronomy

Oct. 01, 2014 Rise Set
Actual Time 6:42 AM PDT 6:23 PM PDT
Civil Twilight 6:12 AM PDT 6:53 PM PDT
Nautical Twilight 5:37 AM PDT 7:28 PM PDT
Astronomical Twilight 5:01 AM PDT 8:03 PM PDT
Moon 2:01 PM PDT 11:46 PM PDT
Length of Visible Light 12h 40m
Length of Day
11h 41m
Tomorrow will be 3m 15s shorter.
Waxing Crescent, 45% of the Moon is Illuminated
Today
Waxing Crescent
Oct 1
First Quarter
Oct 8
Full
Oct 15
Last Quarter
Oct 23
New

Today's Extremes

State Highs State Lows

Community

WunderPhotos

Upload Photos

1,757,902 photos uploaded!

WunderBlogs® & News

Nearby

Snow Depth

Station Depth Elevation
Shanghi Summit 0 in 4570 ft
Atlanta Summit 1 in 7580 ft
Van Wyck 0 in 4920 ft
Magic Mountain 1 in 6880 ft
Humboldt Gulch 1 in 4250 ft

Earthquake Activity

City Distance Mag. Time & Date
No recent earthquake activity has been reported nearby.
Minimum magnitude displayed is 2.5.

Coastal Water Temperatures

Place Temperature
No Stations Reporting

Nearby Weather Stations